sensor_id;sensor_type;location;lat;lon;timestamp;P1;durP1;ratioP1;P2;durP2;ratioP2
12896;SDS011;6516;35.028;32.372;2022-11-15T00:01:08;15.90;;;10.13;;
12896;SDS011;6516;35.028;32.372;2022-11-15T00:03:42;15.95;;;9.52;;
12896;SDS011;6516;35.028;32.372;2022-11-15T00:06:09;17.03;;;10.53;;
12896;SDS011;6516;35.028;32.372;2022-11-15T00:08:39;18.02;;;9.73;;
12896;SDS011;6516;35.028;32.372;2022-11-15T00:11:08;15.20;;;9.40;;
12896;SDS011;6516;35.028;32.372;2022-11-15T00:13:38;16.67;;;9.98;;
12896;SDS011;6516;35.028;32.372;2022-11-15T00:16:06;15.98;;;10.50;;
12896;SDS011;6516;35.028;32.372;2022-11-15T00:18:35;16.43;;;10.10;;
12896;SDS011;6516;35.028;32.372;2022-11-15T00:21:05;17.05;;;9.82;;
12896;SDS011;6516;35.028;32.372;2022-11-15T00:23:34;14.75;;;9.82;;
12896;SDS011;6516;35.028;32.372;2022-11-15T00:26:04;18.17;;;10.25;;
12896;SDS011;6516;35.028;32.372;2022-11-15T00:28:32;16.52;;;10.50;;
12896;SDS011;6516;35.028;32.372;2022-11-15T00:31:00;17.17;;;10.37;;
12896;SDS011;6516;35.028;32.372;2022-11-15T00:33:29;16.55;;;10.02;;
12896;SDS011;6516;35.028;32.372;2022-11-15T00:36:00;15.20;;;9.73;;
12896;SDS011;6516;35.028;32.372;2022-11-15T00:38:33;19.67;;;10.75;;
12896;SDS011;6516;35.028;32.372;2022-11-15T00:41:02;18.40;;;11.13;;
12896;SDS011;6516;35.028;32.372;2022-11-15T00:43:34;15.80;;;10.13;;
12896;SDS011;6516;35.028;32.372;2022-11-15T00:46:02;17.02;;;10.68;;
12896;SDS011;6516;35.028;32.372;2022-11-15T00:48:29;16.38;;;9.63;;
12896;SDS011;6516;35.028;32.372;2022-11-15T00:50:58;16.90;;;10.10;;
12896;SDS011;6516;35.028;32.372;2022-11-15T00:53:26;16.30;;;9.57;;
12896;SDS011;6516;35.028;32.372;2022-11-15T00:55:53;17.27;;;10.87;;
12896;SDS011;6516;35.028;32.372;2022-11-15T00:58:23;17.83;;;10.45;;
12896;SDS011;6516;35.028;32.372;2022-11-15T01:00:50;15.90;;;9.88;;
12896;SDS011;6516;35.028;32.372;2022-11-15T01:03:18;15.57;;;9.55;;
12896;SDS011;6516;35.028;32.372;2022-11-15T01:05:46;17.70;;;11.15;;
12896;SDS011;6516;35.028;32.372;2022-11-15T01:08:14;17.37;;;9.77;;
12896;SDS011;6516;35.028;32.372;2022-11-15T01:10:42;16.73;;;10.13;;
12896;SDS011;6516;35.028;32.372;2022-11-15T01:13:10;18.55;;;10.68;;
12896;SDS011;6516;35.028;32.372;2022-11-15T01:15:40;16.30;;;10.27;;
12896;SDS011;6516;35.028;32.372;2022-11-15T01:18:09;17.63;;;9.98;;
12896;SDS011;6516;35.028;32.372;2022-11-15T01:20:39;17.13;;;11.20;;
12896;SDS011;6516;35.028;32.372;2022-11-15T01:23:08;16.20;;;10.02;;
12896;SDS011;6516;35.028;32.372;2022-11-15T01:25:36;18.08;;;11.15;;
12896;SDS011;6516;35.028;32.372;2022-11-15T01:28:04;16.10;;;10.27;;
12896;SDS011;6516;35.028;32.372;2022-11-15T01:30:32;18.88;;;10.77;;
12896;SDS011;6516;35.028;32.372;2022-11-15T01:33:01;17.23;;;10.73;;
12896;SDS011;6516;35.028;32.372;2022-11-15T01:35:29;16.77;;;10.80;;
12896;SDS011;6516;35.028;32.372;2022-11-15T01:37:56;17.65;;;10.38;;
12896;SDS011;6516;35.028;32.372;2022-11-15T01:40:24;16.55;;;10.25;;
12896;SDS011;6516;35.028;32.372;2022-11-15T01:42:52;18.38;;;10.95;;
12896;SDS011;6516;35.028;32.372;2022-11-15T01:45:20;18.10;;;10.70;;
12896;SDS011;6516;35.028;32.372;2022-11-15T01:47:48;17.10;;;10.35;;
12896;SDS011;6516;35.028;32.372;2022-11-15T01:50:22;17.60;;;10.60;;
12896;SDS011;6516;35.028;32.372;2022-11-15T01:52:54;19.05;;;11.18;;
12896;SDS011;6516;35.028;32.372;2022-11-15T01:55:25;17.30;;;10.30;;
12896;SDS011;6516;35.028;32.372;2022-11-15T01:57:55;17.40;;;10.43;;
12896;SDS011;6516;35.028;32.372;2022-11-15T02:00:28;18.25;;;10.68;;
12896;SDS011;6516;35.028;32.372;2022-11-15T02:02:57;18.20;;;10.63;;
12896;SDS011;6516;35.028;32.372;2022-11-15T02:05:26;19.75;;;11.57;;
12896;SDS011;6516;35.028;32.372;2022-11-15T02:07:54;17.92;;;10.55;;
12896;SDS011;6516;35.028;32.372;2022-11-15T02:10:22;18.53;;;11.03;;
12896;SDS011;6516;35.028;32.372;2022-11-15T02:12:51;17.98;;;11.32;;
12896;SDS011;6516;35.028;32.372;2022-11-15T02:15:19;19.45;;;11.75;;
12896;SDS011;6516;35.028;32.372;2022-11-15T02:17:51;18.42;;;11.35;;
12896;SDS011;6516;35.028;32.372;2022-11-15T02:20:43;17.05;;;10.73;;
12896;SDS011;6516;35.028;32.372;2022-11-15T02:30:22;18.45;;;11.30;;
12896;SDS011;6516;35.028;32.372;2022-11-15T02:32:54;18.63;;;11.25;;
12896;SDS011;6516;35.028;32.372;2022-11-15T02:35:29;17.75;;;11.05;;
12896;SDS011;6516;35.028;32.372;2022-11-15T02:38:08;19.17;;;11.03;;
12896;SDS011;6516;35.028;32.372;2022-11-15T02:40:45;19.55;;;11.88;;
12896;SDS011;6516;35.028;32.372;2022-11-15T02:43:21;19.75;;;10.77;;
12896;SDS011;6516;35.028;32.372;2022-11-15T02:46:16;18.27;;;11.02;;
12896;SDS011;6516;35.028;32.372;2022-11-15T02:49:10;18.30;;;10.88;;
12896;SDS011;6516;35.028;32.372;2022-11-15T02:51:39;16.43;;;10.50;;
12896;SDS011;6516;35.028;32.372;2022-11-15T02:54:10;15.88;;;9.95;;
12896;SDS011;6516;35.028;32.372;2022-11-15T02:56:39;19.08;;;11.38;;
12896;SDS011;6516;35.028;32.372;2022-11-15T02:59:19;16.95;;;10.30;;
12896;SDS011;6516;35.028;32.372;2022-11-15T03:02:11;16.63;;;9.88;;
12896;SDS011;6516;35.028;32.372;2022-11-15T03:04:56;16.33;;;10.40;;
12896;SDS011;6516;35.028;32.372;2022-11-15T03:07:29;15.80;;;9.98;;
12896;SDS011;6516;35.028;32.372;2022-11-15T03:10:05;15.60;;;10.18;;
12896;SDS011;6516;35.028;32.372;2022-11-15T03:12:38;17.63;;;10.18;;
12896;SDS011;6516;35.028;32.372;2022-11-15T03:15:14;16.00;;;10.80;;
12896;SDS011;6516;35.028;32.372;2022-11-15T03:17:51;15.60;;;9.90;;
12896;SDS011;6516;35.028;32.372;2022-11-15T03:20:24;17.50;;;10.75;;
12896;SDS011;6516;35.028;32.372;2022-11-15T03:22:55;18.33;;;9.57;;
12896;SDS011;6516;35.028;32.372;2022-11-15T03:25:28;15.45;;;9.80;;
12896;SDS011;6516;35.028;32.372;2022-11-15T03:27:59;15.43;;;9.75;;
12896;SDS011;6516;35.028;32.372;2022-11-15T03:30:32;16.57;;;10.53;;
12896;SDS011;6516;35.028;32.372;2022-11-15T03:33:04;17.00;;;10.63;;
12896;SDS011;6516;35.028;32.372;2022-11-15T03:35:34;17.38;;;10.18;;
12896;SDS011;6516;35.028;32.372;2022-11-15T03:38:06;14.27;;;9.73;;
12896;SDS011;6516;35.028;32.372;2022-11-15T03:40:42;14.98;;;9.65;;
12896;SDS011;6516;35.028;32.372;2022-11-15T03:43:16;15.33;;;10.20;;
12896;SDS011;6516;35.028;32.372;2022-11-15T03:45:56;16.45;;;9.80;;
12896;SDS011;6516;35.028;32.372;2022-11-15T03:48:30;15.63;;;9.65;;
12896;SDS011;6516;35.028;32.372;2022-11-15T03:51:04;17.35;;;10.27;;
12896;SDS011;6516;35.028;32.372;2022-11-15T03:53:32;14.82;;;9.77;;
12896;SDS011;6516;35.028;32.372;2022-11-15T03:56:00;14.93;;;9.83;;
12896;SDS011;6516;35.028;32.372;2022-11-15T03:58:28;16.00;;;9.57;;
12896;SDS011;6516;35.028;32.372;2022-11-15T04:00:56;15.45;;;9.80;;
12896;SDS011;6516;35.028;32.372;2022-11-15T04:03:24;16.17;;;9.20;;
12896;SDS011;6516;35.028;32.372;2022-11-15T04:05:53;14.77;;;9.63;;
12896;SDS011;6516;35.028;32.372;2022-11-15T04:08:22;14.63;;;9.80;;
12896;SDS011;6516;35.028;32.372;2022-11-15T04:10:49;14.38;;;9.18;;
12896;SDS011;6516;35.028;32.372;2022-11-15T04:13:20;18.88;;;10.50;;
12896;SDS011;6516;35.028;32.372;2022-11-15T04:15:48;16.75;;;9.95;;
12896;SDS011;6516;35.028;32.372;2022-11-15T04:18:16;13.93;;;9.25;;
12896;SDS011;6516;35.028;32.372;2022-11-15T04:20:45;15.10;;;9.77;;
12896;SDS011;6516;35.028;32.372;2022-11-15T04:23:31;14.05;;;9.70;;
12896;SDS011;6516;35.028;32.372;2022-11-15T04:26:17;15.00;;;9.52;;
12896;SDS011;6516;35.028;32.372;2022-11-15T04:28:48;15.02;;;10.20;;
12896;SDS011;6516;35.028;32.372;2022-11-15T04:31:33;14.77;;;9.70;;
12896;SDS011;6516;35.028;32.372;2022-11-15T04:34:01;15.73;;;10.07;;
12896;SDS011;6516;35.028;32.372;2022-11-15T04:36:29;15.00;;;9.68;;
12896;SDS011;6516;35.028;32.372;2022-11-15T04:39:15;14.88;;;9.48;;
12896;SDS011;6516;35.028;32.372;2022-11-15T04:41:43;17.85;;;9.68;;
12896;SDS011;6516;35.028;32.372;2022-11-15T04:44:11;17.92;;;10.52;;
12896;SDS011;6516;35.028;32.372;2022-11-15T04:46:38;17.80;;;9.67;;
12896;SDS011;6516;35.028;32.372;2022-11-15T04:49:06;16.40;;;10.00;;
12896;SDS011;6516;35.028;32.372;2022-11-15T04:51:34;18.23;;;9.75;;
12896;SDS011;6516;35.028;32.372;2022-11-15T04:54:02;13.57;;;9.18;;
12896;SDS011;6516;35.028;32.372;2022-11-15T04:56:32;16.63;;;9.30;;
12896;SDS011;6516;35.028;32.372;2022-11-15T04:59:00;14.90;;;9.90;;
12896;SDS011;6516;35.028;32.372;2022-11-15T05:01:27;16.58;;;9.63;;
12896;SDS011;6516;35.028;32.372;2022-11-15T05:03:55;14.88;;;9.73;;
12896;SDS011;6516;35.028;32.372;2022-11-15T05:06:40;16.33;;;10.05;;
12896;SDS011;6516;35.028;32.372;2022-11-15T05:09:09;16.58;;;10.50;;
12896;SDS011;6516;35.028;32.372;2022-11-15T05:11:39;16.00;;;10.13;;
12896;SDS011;6516;35.028;32.372;2022-11-15T05:14:07;13.98;;;9.18;;
12896;SDS011;6516;35.028;32.372;2022-11-15T05:16:35;16.10;;;9.65;;
12896;SDS011;6516;35.028;32.372;2022-11-15T05:19:03;16.17;;;10.05;;
12896;SDS011;6516;35.028;32.372;2022-11-15T05:21:32;15.25;;;10.00;;
12896;SDS011;6516;35.028;32.372;2022-11-15T05:24:01;17.37;;;10.17;;
12896;SDS011;6516;35.028;32.372;2022-11-15T05:26:30;14.52;;;9.15;;
12896;SDS011;6516;35.028;32.372;2022-11-15T05:28:59;18.70;;;9.48;;
12896;SDS011;6516;35.028;32.372;2022-11-15T05:31:27;14.50;;;9.95;;
12896;SDS011;6516;35.028;32.372;2022-11-15T05:33:55;14.23;;;9.27;;
12896;SDS011;6516;35.028;32.372;2022-11-15T05:36:27;16.57;;;10.23;;
12896;SDS011;6516;35.028;32.372;2022-11-15T05:39:00;13.77;;;9.27;;
12896;SDS011;6516;35.028;32.372;2022-11-15T05:41:30;15.18;;;9.70;;
12896;SDS011;6516;35.028;32.372;2022-11-15T05:44:04;14.85;;;9.57;;
12896;SDS011;6516;35.028;32.372;2022-11-15T05:46:34;15.80;;;10.20;;
12896;SDS011;6516;35.028;32.372;2022-11-15T05:49:04;18.30;;;10.17;;
12896;SDS011;6516;35.028;32.372;2022-11-15T05:51:35;15.40;;;9.93;;
12896;SDS011;6516;35.028;32.372;2022-11-15T05:54:03;14.13;;;9.20;;
12896;SDS011;6516;35.028;32.372;2022-11-15T05:56:31;15.77;;;9.48;;
12896;SDS011;6516;35.028;32.372;2022-11-15T05:58:59;14.65;;;9.73;;
12896;SDS011;6516;35.028;32.372;2022-11-15T06:01:29;14.47;;;10.07;;
12896;SDS011;6516;35.028;32.372;2022-11-15T06:03:57;13.32;;;8.77;;
12896;SDS011;6516;35.028;32.372;2022-11-15T06:06:26;14.50;;;9.10;;
12896;SDS011;6516;35.028;32.372;2022-11-15T06:08:54;14.32;;;9.07;;
12896;SDS011;6516;35.028;32.372;2022-11-15T06:11:22;14.90;;;8.90;;
12896;SDS011;6516;35.028;32.372;2022-11-15T06:13:50;14.93;;;9.20;;
12896;SDS011;6516;35.028;32.372;2022-11-15T06:16:18;13.63;;;9.10;;
12896;SDS011;6516;35.028;32.372;2022-11-15T06:18:47;12.68;;;9.00;;
12896;SDS011;6516;35.028;32.372;2022-11-15T06:21:14;13.70;;;8.95;;
12896;SDS011;6516;35.028;32.372;2022-11-15T06:23:42;13.10;;;8.85;;
12896;SDS011;6516;35.028;32.372;2022-11-15T06:26:10;14.70;;;9.10;;
12896;SDS011;6516;35.028;32.372;2022-11-15T06:28:38;13.25;;;8.82;;
12896;SDS011;6516;35.028;32.372;2022-11-15T06:31:06;13.48;;;9.05;;
12896;SDS011;6516;35.028;32.372;2022-11-15T06:33:36;14.13;;;9.32;;
12896;SDS011;6516;35.028;32.372;2022-11-15T06:36:06;13.70;;;8.93;;
12896;SDS011;6516;35.028;32.372;2022-11-15T06:38:36;12.90;;;8.73;;
12896;SDS011;6516;35.028;32.372;2022-11-15T06:41:04;13.88;;;8.68;;
12896;SDS011;6516;35.028;32.372;2022-11-15T06:43:34;14.40;;;8.50;;
12896;SDS011;6516;35.028;32.372;2022-11-15T06:46:04;14.63;;;9.43;;
12896;SDS011;6516;35.028;32.372;2022-11-15T06:48:33;14.35;;;9.48;;
12896;SDS011;6516;35.028;32.372;2022-11-15T06:51:02;12.67;;;9.07;;
12896;SDS011;6516;35.028;32.372;2022-11-15T06:53:33;12.23;;;8.50;;
12896;SDS011;6516;35.028;32.372;2022-11-15T06:56:01;14.93;;;8.73;;
12896;SDS011;6516;35.028;32.372;2022-11-15T06:58:30;11.95;;;8.30;;
12896;SDS011;6516;35.028;32.372;2022-11-15T07:00:58;12.57;;;8.07;;
12896;SDS011;6516;35.028;32.372;2022-11-15T07:03:27;14.33;;;8.20;;
12896;SDS011;6516;35.028;32.372;2022-11-15T07:05:55;12.48;;;7.93;;
12896;SDS011;6516;35.028;32.372;2022-11-15T07:08:26;12.85;;;8.00;;
12896;SDS011;6516;35.028;32.372;2022-11-15T07:10:57;12.18;;;7.93;;
12896;SDS011;6516;35.028;32.372;2022-11-15T07:13:27;13.82;;;8.68;;
12896;SDS011;6516;35.028;32.372;2022-11-15T07:15:58;11.17;;;8.40;;
12896;SDS011;6516;35.028;32.372;2022-11-15T07:18:30;12.70;;;8.23;;
12896;SDS011;6516;35.028;32.372;2022-11-15T07:21:00;10.70;;;8.10;;
12896;SDS011;6516;35.028;32.372;2022-11-15T07:23:30;12.13;;;8.48;;
12896;SDS011;6516;35.028;32.372;2022-11-15T07:25:59;11.00;;;7.88;;
12896;SDS011;6516;35.028;32.372;2022-11-15T07:28:26;11.00;;;8.20;;
12896;SDS011;6516;35.028;32.372;2022-11-15T07:30:55;12.23;;;7.78;;
12896;SDS011;6516;35.028;32.372;2022-11-15T07:33:23;12.82;;;8.05;;
12896;SDS011;6516;35.028;32.372;2022-11-15T07:35:50;10.50;;;7.95;;
12896;SDS011;6516;35.028;32.372;2022-11-15T07:38:18;11.13;;;7.60;;
12896;SDS011;6516;35.028;32.372;2022-11-15T07:40:48;11.50;;;8.27;;
12896;SDS011;6516;35.028;32.372;2022-11-15T07:43:23;12.95;;;7.85;;
12896;SDS011;6516;35.028;32.372;2022-11-15T07:45:53;12.15;;;7.93;;
12896;SDS011;6516;35.028;32.372;2022-11-15T07:48:21;11.88;;;8.40;;
12896;SDS011;6516;35.028;32.372;2022-11-15T07:50:48;10.70;;;7.95;;
12896;SDS011;6516;35.028;32.372;2022-11-15T07:53:16;11.37;;;7.87;;
12896;SDS011;6516;35.028;32.372;2022-11-15T07:55:44;10.43;;;7.90;;
12896;SDS011;6516;35.028;32.372;2022-11-15T07:58:13;11.60;;;7.70;;
12896;SDS011;6516;35.028;32.372;2022-11-15T08:00:41;11.55;;;7.82;;
12896;SDS011;6516;35.028;32.372;2022-11-15T08:03:09;11.48;;;7.68;;
12896;SDS011;6516;35.028;32.372;2022-11-15T08:05:39;10.30;;;8.00;;
12896;SDS011;6516;35.028;32.372;2022-11-15T08:08:08;10.30;;;7.53;;
12896;SDS011;6516;35.028;32.372;2022-11-15T08:10:37;9.98;;;7.63;;
12896;SDS011;6516;35.028;32.372;2022-11-15T08:13:06;10.68;;;7.85;;
12896;SDS011;6516;35.028;32.372;2022-11-15T08:15:37;13.00;;;7.50;;
12896;SDS011;6516;35.028;32.372;2022-11-15T08:18:09;12.03;;;7.83;;
12896;SDS011;6516;35.028;32.372;2022-11-15T08:20:39;12.00;;;7.90;;
12896;SDS011;6516;35.028;32.372;2022-11-15T08:23:08;12.43;;;8.30;;
12896;SDS011;6516;35.028;32.372;2022-11-15T08:25:38;10.77;;;7.50;;
12896;SDS011;6516;35.028;32.372;2022-11-15T08:28:06;10.55;;;7.93;;
12896;SDS011;6516;35.028;32.372;2022-11-15T08:30:37;10.87;;;7.83;;
12896;SDS011;6516;35.028;32.372;2022-11-15T08:33:10;10.23;;;7.65;;
12896;SDS011;6516;35.028;32.372;2022-11-15T08:35:39;9.85;;;7.15;;
12896;SDS011;6516;35.028;32.372;2022-11-15T08:38:07;12.93;;;7.47;;
12896;SDS011;6516;35.028;32.372;2022-11-15T08:40:36;12.70;;;7.57;;
12896;SDS011;6516;35.028;32.372;2022-11-15T08:43:04;10.97;;;7.60;;
12896;SDS011;6516;35.028;32.372;2022-11-15T08:45:33;11.15;;;7.80;;
12896;SDS011;6516;35.028;32.372;2022-11-15T08:48:04;11.18;;;8.00;;
12896;SDS011;6516;35.028;32.372;2022-11-15T08:50:32;10.45;;;7.80;;
12896;SDS011;6516;35.028;32.372;2022-11-15T08:53:03;9.88;;;7.50;;
12896;SDS011;6516;35.028;32.372;2022-11-15T08:55:32;10.93;;;7.90;;
12896;SDS011;6516;35.028;32.372;2022-11-15T08:58:03;12.48;;;8.13;;
12896;SDS011;6516;35.028;32.372;2022-11-15T09:00:31;12.98;;;7.65;;
12896;SDS011;6516;35.028;32.372;2022-11-15T09:02:59;10.88;;;7.47;;
12896;SDS011;6516;35.028;32.372;2022-11-15T09:05:35;12.20;;;7.65;;
12896;SDS011;6516;35.028;32.372;2022-11-15T09:08:04;11.10;;;8.10;;
12896;SDS011;6516;35.028;32.372;2022-11-15T09:10:32;11.00;;;8.13;;
12896;SDS011;6516;35.028;32.372;2022-11-15T09:13:00;10.77;;;7.88;;
12896;SDS011;6516;35.028;32.372;2022-11-15T09:15:27;12.30;;;8.25;;
12896;SDS011;6516;35.028;32.372;2022-11-15T09:17:57;10.57;;;7.38;;
12896;SDS011;6516;35.028;32.372;2022-11-15T09:20:27;10.30;;;7.40;;
12896;SDS011;6516;35.028;32.372;2022-11-15T09:22:55;10.55;;;7.78;;
12896;SDS011;6516;35.028;32.372;2022-11-15T09:25:27;9.15;;;7.40;;
12896;SDS011;6516;35.028;32.372;2022-11-15T09:27:56;9.93;;;7.53;;
12896;SDS011;6516;35.028;32.372;2022-11-15T09:30:25;10.35;;;7.80;;
12896;SDS011;6516;35.028;32.372;2022-11-15T09:32:53;11.63;;;8.07;;
12896;SDS011;6516;35.028;32.372;2022-11-15T09:35:20;10.02;;;7.60;;
12896;SDS011;6516;35.028;32.372;2022-11-15T09:37:49;12.98;;;7.80;;
12896;SDS011;6516;35.028;32.372;2022-11-15T09:40:24;13.38;;;7.90;;
12896;SDS011;6516;35.028;32.372;2022-11-15T09:42:55;10.82;;;7.72;;
12896;SDS011;6516;35.028;32.372;2022-11-15T09:45:53;11.13;;;7.70;;
12896;SDS011;6516;35.028;32.372;2022-11-15T09:48:37;10.02;;;7.90;;
12896;SDS011;6516;35.028;32.372;2022-11-15T09:51:24;12.57;;;7.45;;
12896;SDS011;6516;35.028;32.372;2022-11-15T09:54:09;10.60;;;7.70;;
12896;SDS011;6516;35.028;32.372;2022-11-15T09:56:48;10.23;;;7.63;;
12896;SDS011;6516;35.028;32.372;2022-11-15T09:59:21;10.57;;;7.77;;
12896;SDS011;6516;35.028;32.372;2022-11-15T10:02:02;10.52;;;7.75;;
12896;SDS011;6516;35.028;32.372;2022-11-15T10:04:45;11.07;;;7.38;;
12896;SDS011;6516;35.028;32.372;2022-11-15T10:07:14;11.43;;;7.65;;
12896;SDS011;6516;35.028;32.372;2022-11-15T10:09:50;10.07;;;7.78;;
12896;SDS011;6516;35.028;32.372;2022-11-15T10:12:22;11.83;;;7.80;;
12896;SDS011;6516;35.028;32.372;2022-11-15T10:14:50;10.20;;;7.45;;
12896;SDS011;6516;35.028;32.372;2022-11-15T10:17:33;13.32;;;7.40;;
12896;SDS011;6516;35.028;32.372;2022-11-15T10:20:22;10.02;;;7.45;;
12896;SDS011;6516;35.028;32.372;2022-11-15T10:22:53;11.35;;;7.65;;
12896;SDS011;6516;35.028;32.372;2022-11-15T10:25:27;10.23;;;7.40;;
12896;SDS011;6516;35.028;32.372;2022-11-15T10:27:57;10.57;;;7.20;;
12896;SDS011;6516;35.028;32.372;2022-11-15T10:30:32;11.13;;;7.85;;
12896;SDS011;6516;35.028;32.372;2022-11-15T10:33:15;9.48;;;6.95;;
12896;SDS011;6516;35.028;32.372;2022-11-15T10:38:54;10.80;;;7.20;;
12896;SDS011;6516;35.028;32.372;2022-11-15T10:41:34;10.75;;;7.88;;
12896;SDS011;6516;35.028;32.372;2022-11-15T10:44:12;11.80;;;7.65;;
12896;SDS011;6516;35.028;32.372;2022-11-15T10:46:47;10.70;;;7.97;;
12896;SDS011;6516;35.028;32.372;2022-11-15T10:49:32;12.55;;;7.85;;
12896;SDS011;6516;35.028;32.372;2022-11-15T10:52:01;12.67;;;7.90;;
12896;SDS011;6516;35.028;32.372;2022-11-15T10:54:41;10.30;;;7.13;;
12896;SDS011;6516;35.028;32.372;2022-11-15T10:57:14;10.15;;;7.10;;
12896;SDS011;6516;35.028;32.372;2022-11-15T10:59:45;11.27;;;7.90;;
12896;SDS011;6516;35.028;32.372;2022-11-15T11:05:24;11.90;;;7.27;;
12896;SDS011;6516;35.028;32.372;2022-11-15T11:07:56;11.90;;;8.20;;
12896;SDS011;6516;35.028;32.372;2022-11-15T11:10:27;11.80;;;8.00;;
12896;SDS011;6516;35.028;32.372;2022-11-15T11:13:04;10.65;;;7.80;;
12896;SDS011;6516;35.028;32.372;2022-11-15T11:15:40;12.35;;;7.75;;
12896;SDS011;6516;35.028;32.372;2022-11-15T11:18:12;11.20;;;7.60;;
12896;SDS011;6516;35.028;32.372;2022-11-15T11:20:48;10.60;;;7.63;;
12896;SDS011;6516;35.028;32.372;2022-11-15T11:23:32;10.57;;;8.10;;
12896;SDS011;6516;35.028;32.372;2022-11-15T11:26:27;10.93;;;8.00;;
12896;SDS011;6516;35.028;32.372;2022-11-15T11:29:10;10.52;;;7.75;;
12896;SDS011;6516;35.028;32.372;2022-11-15T11:31:58;12.03;;;8.23;;
12896;SDS011;6516;35.028;32.372;2022-11-15T11:34:46;10.45;;;7.28;;
12896;SDS011;6516;35.028;32.372;2022-11-15T11:37:24;10.80;;;7.55;;
12896;SDS011;6516;35.028;32.372;2022-11-15T11:40:06;12.10;;;7.80;;
12896;SDS011;6516;35.028;32.372;2022-11-15T11:42:47;10.77;;;8.20;;
12896;SDS011;6516;35.028;32.372;2022-11-15T11:45:30;11.20;;;8.07;;
12896;SDS011;6516;35.028;32.372;2022-11-15T11:48:20;11.35;;;7.82;;
12896;SDS011;6516;35.028;32.372;2022-11-15T11:51:13;10.05;;;7.60;;
12896;SDS011;6516;35.028;32.372;2022-11-15T11:53:47;10.45;;;7.18;;
12896;SDS011;6516;35.028;32.372;2022-11-15T11:56:23;10.27;;;7.68;;
12896;SDS011;6516;35.028;32.372;2022-11-15T11:58:56;11.17;;;7.90;;
12896;SDS011;6516;35.028;32.372;2022-11-15T12:01:32;11.45;;;7.90;;
12896;SDS011;6516;35.028;32.372;2022-11-15T12:04:05;11.35;;;7.18;;
12896;SDS011;6516;35.028;32.372;2022-11-15T12:06:41;9.90;;;7.70;;
12896;SDS011;6516;35.028;32.372;2022-11-15T12:09:16;12.45;;;7.95;;
12896;SDS011;6516;35.028;32.372;2022-11-15T12:11:50;11.27;;;7.70;;
12896;SDS011;6516;35.028;32.372;2022-11-15T12:14:28;12.18;;;8.00;;
12896;SDS011;6516;35.028;32.372;2022-11-15T12:17:02;10.23;;;7.93;;
12896;SDS011;6516;35.028;32.372;2022-11-15T12:19:30;9.82;;;7.60;;
12896;SDS011;6516;35.028;32.372;2022-11-15T12:22:00;10.50;;;7.70;;
12896;SDS011;6516;35.028;32.372;2022-11-15T12:24:34;11.40;;;7.63;;
12896;SDS011;6516;35.028;32.372;2022-11-15T12:27:07;10.55;;;7.53;;
12896;SDS011;6516;35.028;32.372;2022-11-15T12:29:44;11.25;;;7.75;;
12896;SDS011;6516;35.028;32.372;2022-11-15T12:32:19;10.88;;;7.90;;
12896;SDS011;6516;35.028;32.372;2022-11-15T12:34:53;10.23;;;7.68;;
12896;SDS011;6516;35.028;32.372;2022-11-15T12:46:05;11.13;;;8.10;;
12896;SDS011;6516;35.028;32.372;2022-11-15T12:54:55;10.13;;;7.55;;
12896;SDS011;6516;35.028;32.372;2022-11-15T13:03:17;10.70;;;7.60;;
12896;SDS011;6516;35.028;32.372;2022-11-15T13:09:03;10.57;;;7.43;;
12896;SDS011;6516;35.028;32.372;2022-11-15T13:12:09;12.43;;;8.13;;
12896;SDS011;6516;35.028;32.372;2022-11-15T13:14:52;11.55;;;8.30;;
12896;SDS011;6516;35.028;32.372;2022-11-15T13:17:35;11.40;;;8.27;;
12896;SDS011;6516;35.028;32.372;2022-11-15T13:20:17;11.20;;;8.37;;
12896;SDS011;6516;35.028;32.372;2022-11-15T13:22:50;13.02;;;7.93;;
12896;SDS011;6516;35.028;32.372;2022-11-15T13:25:32;11.15;;;7.65;;
12896;SDS011;6516;35.028;32.372;2022-11-15T13:28:41;10.80;;;7.57;;
12896;SDS011;6516;35.028;32.372;2022-11-15T13:31:23;9.48;;;7.55;;
12896;SDS011;6516;35.028;32.372;2022-11-15T13:33:59;10.10;;;7.80;;
12896;SDS011;6516;35.028;32.372;2022-11-15T13:36:30;10.82;;;7.78;;
12896;SDS011;6516;35.028;32.372;2022-11-15T13:39:02;11.73;;;8.02;;
12896;SDS011;6516;35.028;32.372;2022-11-15T13:41:33;10.70;;;7.40;;
12896;SDS011;6516;35.028;32.372;2022-11-15T13:44:17;10.00;;;7.30;;
12896;SDS011;6516;35.028;32.372;2022-11-15T13:46:47;12.03;;;8.03;;
12896;SDS011;6516;35.028;32.372;2022-11-15T13:49:16;10.13;;;7.75;;
12896;SDS011;6516;35.028;32.372;2022-11-15T13:51:44;11.65;;;8.15;;
12896;SDS011;6516;35.028;32.372;2022-11-15T13:54:19;11.10;;;7.95;;
12896;SDS011;6516;35.028;32.372;2022-11-15T13:56:52;11.38;;;7.70;;
12896;SDS011;6516;35.028;32.372;2022-11-15T13:59:24;11.50;;;7.80;;
12896;SDS011;6516;35.028;32.372;2022-11-15T14:01:54;10.48;;;7.60;;
12896;SDS011;6516;35.028;32.372;2022-11-15T14:04:25;11.93;;;7.60;;
12896;SDS011;6516;35.028;32.372;2022-11-15T14:06:59;12.13;;;8.10;;
12896;SDS011;6516;35.028;32.372;2022-11-15T14:09:34;12.50;;;8.30;;
12896;SDS011;6516;35.028;32.372;2022-11-15T14:12:25;12.00;;;8.40;;
12896;SDS011;6516;35.028;32.372;2022-11-15T14:14:57;11.32;;;8.13;;
12896;SDS011;6516;35.028;32.372;2022-11-15T14:17:33;13.57;;;8.30;;
12896;SDS011;6516;35.028;32.372;2022-11-15T14:22:59;11.60;;;8.38;;
12896;SDS011;6516;35.028;32.372;2022-11-15T14:25:30;11.87;;;8.53;;
12896;SDS011;6516;35.028;32.372;2022-11-15T14:28:09;13.15;;;8.27;;
12896;SDS011;6516;35.028;32.372;2022-11-15T14:30:41;12.35;;;8.23;;
12896;SDS011;6516;35.028;32.372;2022-11-15T14:33:20;13.75;;;7.95;;
12896;SDS011;6516;35.028;32.372;2022-11-15T14:35:51;11.13;;;8.02;;
12896;SDS011;6516;35.028;32.372;2022-11-15T14:38:20;11.70;;;7.93;;
12896;SDS011;6516;35.028;32.372;2022-11-15T14:40:49;10.73;;;7.70;;
12896;SDS011;6516;35.028;32.372;2022-11-15T14:43:19;12.25;;;8.52;;
12896;SDS011;6516;35.028;32.372;2022-11-15T14:45:47;11.63;;;7.78;;
12896;SDS011;6516;35.028;32.372;2022-11-15T14:48:15;12.50;;;8.35;;
12896;SDS011;6516;35.028;32.372;2022-11-15T14:50:43;12.57;;;8.73;;
12896;SDS011;6516;35.028;32.372;2022-11-15T14:53:12;13.27;;;8.73;;
12896;SDS011;6516;35.028;32.372;2022-11-15T14:55:42;13.05;;;8.68;;
12896;SDS011;6516;35.028;32.372;2022-11-15T14:58:11;12.85;;;8.98;;
12896;SDS011;6516;35.028;32.372;2022-11-15T15:00:40;13.55;;;9.07;;
12896;SDS011;6516;35.028;32.372;2022-11-15T15:03:08;13.03;;;8.80;;
12896;SDS011;6516;35.028;32.372;2022-11-15T15:05:37;12.60;;;8.45;;
12896;SDS011;6516;35.028;32.372;2022-11-15T15:08:07;11.20;;;8.27;;
12896;SDS011;6516;35.028;32.372;2022-11-15T15:10:36;12.85;;;9.00;;
12896;SDS011;6516;35.028;32.372;2022-11-15T15:13:06;12.90;;;9.43;;
12896;SDS011;6516;35.028;32.372;2022-11-15T15:15:43;13.37;;;9.37;;
12896;SDS011;6516;35.028;32.372;2022-11-15T15:18:11;15.15;;;9.35;;
12896;SDS011;6516;35.028;32.372;2022-11-15T15:20:39;14.23;;;9.70;;
12896;SDS011;6516;35.028;32.372;2022-11-15T15:23:10;13.70;;;9.18;;
12896;SDS011;6516;35.028;32.372;2022-11-15T15:25:43;15.45;;;9.38;;
12896;SDS011;6516;35.028;32.372;2022-11-15T15:28:14;15.77;;;9.27;;
12896;SDS011;6516;35.028;32.372;2022-11-15T15:30:42;13.90;;;9.05;;
12896;SDS011;6516;35.028;32.372;2022-11-15T15:33:10;13.60;;;9.25;;
12896;SDS011;6516;35.028;32.372;2022-11-15T15:35:38;13.68;;;9.20;;
12896;SDS011;6516;35.028;32.372;2022-11-15T15:38:08;19.63;;;10.13;;
12896;SDS011;6516;35.028;32.372;2022-11-15T15:40:38;14.93;;;9.87;;